sensor_id;sensor_type;location;lat;lon;timestamp;P1;durP1;ratioP1;P2;durP2;ratioP2
16524;SDS011;8375;33.594;-117.718;2023-04-02T00:02:46;1.80;;;0.70;;
16524;SDS011;8375;33.594;-117.718;2023-04-02T00:05:27;2.60;;;1.00;;
16524;SDS011;8375;33.594;-117.718;2023-04-02T00:08:22;4.23;;;1.00;;
16524;SDS011;8375;33.594;-117.718;2023-04-02T00:10:53;3.70;;;1.17;;
16524;SDS011;8375;33.594;-117.718;2023-04-02T00:13:25;1.50;;;0.80;;
16524;SDS011;8375;33.594;-117.718;2023-04-02T00:15:59;4.20;;;1.00;;
16524;SDS011;8375;33.594;-117.718;2023-04-02T00:18:31;2.17;;;1.07;;
16524;SDS011;8375;33.594;-117.718;2023-04-02T00:21:05;1.87;;;1.00;;
16524;SDS011;8375;33.594;-117.718;2023-04-02T00:23:41;2.87;;;1.00;;
16524;SDS011;8375;33.594;-117.718;2023-04-02T00:28:57;2.20;;;0.80;;
16524;SDS011;8375;33.594;-117.718;2023-04-02T00:31:27;2.73;;;0.80;;
16524;SDS011;8375;33.594;-117.718;2023-04-02T00:33:57;2.63;;;0.90;;
16524;SDS011;8375;33.594;-117.718;2023-04-02T00:36:29;1.93;;;0.70;;
16524;SDS011;8375;33.594;-117.718;2023-04-02T00:39:01;3.93;;;0.83;;
16524;SDS011;8375;33.594;-117.718;2023-04-02T00:41:35;1.40;;;0.73;;
16524;SDS011;8375;33.594;-117.718;2023-04-02T00:44:11;2.23;;;0.80;;
16524;SDS011;8375;33.594;-117.718;2023-04-02T00:46:46;4.27;;;1.10;;
16524;SDS011;8375;33.594;-117.718;2023-04-02T00:49:19;3.07;;;1.00;;
16524;SDS011;8375;33.594;-117.718;2023-04-02T00:51:52;1.60;;;0.90;;
16524;SDS011;8375;33.594;-117.718;2023-04-02T00:54:24;3.73;;;1.03;;
16524;SDS011;8375;33.594;-117.718;2023-04-02T00:56:55;1.77;;;0.70;;
16524;SDS011;8375;33.594;-117.718;2023-04-02T00:59:26;3.97;;;0.90;;
16524;SDS011;8375;33.594;-117.718;2023-04-02T01:01:57;1.87;;;0.80;;
16524;SDS011;8375;33.594;-117.718;2023-04-02T01:04:31;4.17;;;0.80;;
16524;SDS011;8375;33.594;-117.718;2023-04-02T01:07:05;2.20;;;0.80;;
16524;SDS011;8375;33.594;-117.718;2023-04-02T01:09:49;2.23;;;0.70;;
16524;SDS011;8375;33.594;-117.718;2023-04-02T01:12:45;1.67;;;0.70;;
16524;SDS011;8375;33.594;-117.718;2023-04-02T01:15:20;1.37;;;0.50;;
16524;SDS011;8375;33.594;-117.718;2023-04-02T01:18:01;2.17;;;0.80;;
16524;SDS011;8375;33.594;-117.718;2023-04-02T01:20:58;5.17;;;0.97;;
16524;SDS011;8375;33.594;-117.718;2023-04-02T01:23:39;2.10;;;1.00;;
16524;SDS011;8375;33.594;-117.718;2023-04-02T01:26:21;2.33;;;0.80;;
16524;SDS011;8375;33.594;-117.718;2023-04-02T01:29:03;3.10;;;0.80;;
16524;SDS011;8375;33.594;-117.718;2023-04-02T01:31:38;3.23;;;0.70;;
16524;SDS011;8375;33.594;-117.718;2023-04-02T01:34:08;4.53;;;0.87;;
16524;SDS011;8375;33.594;-117.718;2023-04-02T01:36:42;1.43;;;0.70;;
16524;SDS011;8375;33.594;-117.718;2023-04-02T01:39:22;1.20;;;0.73;;
16524;SDS011;8375;33.594;-117.718;2023-04-02T01:42:00;1.87;;;0.80;;
16524;SDS011;8375;33.594;-117.718;2023-04-02T01:44:37;1.77;;;0.70;;
16524;SDS011;8375;33.594;-117.718;2023-04-02T01:47:09;1.70;;;0.80;;
16524;SDS011;8375;33.594;-117.718;2023-04-02T01:49:41;1.53;;;0.67;;
16524;SDS011;8375;33.594;-117.718;2023-04-02T01:52:11;1.33;;;0.70;;
16524;SDS011;8375;33.594;-117.718;2023-04-02T01:54:43;3.83;;;1.03;;
16524;SDS011;8375;33.594;-117.718;2023-04-02T01:57:13;2.87;;;1.07;;
16524;SDS011;8375;33.594;-117.718;2023-04-02T01:59:45;0.97;;;0.70;;
16524;SDS011;8375;33.594;-117.718;2023-04-02T02:02:13;1.90;;;0.87;;
16524;SDS011;8375;33.594;-117.718;2023-04-02T02:04:42;2.67;;;0.83;;
16524;SDS011;8375;33.594;-117.718;2023-04-02T02:07:12;1.93;;;0.80;;
16524;SDS011;8375;33.594;-117.718;2023-04-02T02:09:44;3.40;;;0.87;;
16524;SDS011;8375;33.594;-117.718;2023-04-02T02:12:14;3.87;;;1.20;;
16524;SDS011;8375;33.594;-117.718;2023-04-02T02:14:47;3.00;;;1.10;;
16524;SDS011;8375;33.594;-117.718;2023-04-02T02:17:17;2.63;;;0.93;;
16524;SDS011;8375;33.594;-117.718;2023-04-02T02:19:51;2.93;;;1.20;;
16524;SDS011;8375;33.594;-117.718;2023-04-02T02:22:25;2.70;;;0.93;;
16524;SDS011;8375;33.594;-117.718;2023-04-02T02:24:56;3.87;;;1.10;;
16524;SDS011;8375;33.594;-117.718;2023-04-02T02:27:50;1.60;;;0.97;;
16524;SDS011;8375;33.594;-117.718;2023-04-02T02:30:27;3.17;;;1.10;;
16524;SDS011;8375;33.594;-117.718;2023-04-02T02:33:00;3.83;;;1.10;;
16524;SDS011;8375;33.594;-117.718;2023-04-02T02:35:34;5.50;;;1.13;;
16524;SDS011;8375;33.594;-117.718;2023-04-02T02:38:21;4.67;;;1.23;;
16524;SDS011;8375;33.594;-117.718;2023-04-02T02:40:59;4.27;;;1.30;;
16524;SDS011;8375;33.594;-117.718;2023-04-02T02:43:31;6.93;;;1.67;;
16524;SDS011;8375;33.594;-117.718;2023-04-02T02:46:03;6.20;;;1.33;;
16524;SDS011;8375;33.594;-117.718;2023-04-02T02:48:33;3.33;;;1.30;;
16524;SDS011;8375;33.594;-117.718;2023-04-02T02:51:05;6.60;;;1.40;;
16524;SDS011;8375;33.594;-117.718;2023-04-02T02:53:50;3.50;;;1.00;;
16524;SDS011;8375;33.594;-117.718;2023-04-02T02:56:22;3.73;;;1.30;;
16524;SDS011;8375;33.594;-117.718;2023-04-02T02:58:53;5.10;;;1.10;;
16524;SDS011;8375;33.594;-117.718;2023-04-02T03:01:24;1.73;;;1.17;;
16524;SDS011;8375;33.594;-117.718;2023-04-02T03:03:55;2.63;;;1.17;;
16524;SDS011;8375;33.594;-117.718;2023-04-02T03:06:24;3.60;;;1.13;;
16524;SDS011;8375;33.594;-117.718;2023-04-02T03:08:56;3.17;;;1.03;;
16524;SDS011;8375;33.594;-117.718;2023-04-02T03:11:32;4.00;;;1.17;;
16524;SDS011;8375;33.594;-117.718;2023-04-02T03:14:09;6.20;;;1.83;;
16524;SDS011;8375;33.594;-117.718;2023-04-02T03:16:51;4.23;;;1.20;;
16524;SDS011;8375;33.594;-117.718;2023-04-02T03:19:26;5.23;;;1.60;;
16524;SDS011;8375;33.594;-117.718;2023-04-02T03:22:01;5.60;;;1.60;;
16524;SDS011;8375;33.594;-117.718;2023-04-02T03:24:35;6.67;;;1.90;;
16524;SDS011;8375;33.594;-117.718;2023-04-02T03:27:12;5.63;;;1.60;;
16524;SDS011;8375;33.594;-117.718;2023-04-02T03:29:45;4.00;;;1.40;;
16524;SDS011;8375;33.594;-117.718;2023-04-02T03:32:30;6.30;;;1.63;;
16524;SDS011;8375;33.594;-117.718;2023-04-02T03:35:16;3.10;;;1.40;;
16524;SDS011;8375;33.594;-117.718;2023-04-02T03:37:50;3.50;;;1.27;;
16524;SDS011;8375;33.594;-117.718;2023-04-02T03:40:23;4.90;;;1.20;;
16524;SDS011;8375;33.594;-117.718;2023-04-02T03:42:57;3.00;;;1.70;;
16524;SDS011;8375;33.594;-117.718;2023-04-02T03:45:32;3.97;;;2.03;;
16524;SDS011;8375;33.594;-117.718;2023-04-02T03:48:08;4.57;;;1.77;;
16524;SDS011;8375;33.594;-117.718;2023-04-02T03:50:41;4.63;;;1.43;;
16524;SDS011;8375;33.594;-117.718;2023-04-02T03:53:15;4.77;;;1.90;;
16524;SDS011;8375;33.594;-117.718;2023-04-02T03:55:43;7.17;;;1.87;;
16524;SDS011;8375;33.594;-117.718;2023-04-02T03:58:13;5.57;;;1.83;;
16524;SDS011;8375;33.594;-117.718;2023-04-02T04:00:48;6.57;;;1.90;;
16524;SDS011;8375;33.594;-117.718;2023-04-02T04:03:24;3.97;;;1.70;;
16524;SDS011;8375;33.594;-117.718;2023-04-02T04:05:58;8.30;;;1.70;;
16524;SDS011;8375;33.594;-117.718;2023-04-02T04:08:33;6.13;;;1.50;;
16524;SDS011;8375;33.594;-117.718;2023-04-02T04:11:13;5.57;;;1.80;;
16524;SDS011;8375;33.594;-117.718;2023-04-02T04:13:45;7.07;;;1.90;;
16524;SDS011;8375;33.594;-117.718;2023-04-02T04:16:18;4.27;;;1.87;;
16524;SDS011;8375;33.594;-117.718;2023-04-02T04:18:54;4.73;;;1.93;;
16524;SDS011;8375;33.594;-117.718;2023-04-02T04:21:28;5.80;;;2.23;;
16524;SDS011;8375;33.594;-117.718;2023-04-02T04:24:02;8.50;;;1.93;;
16524;SDS011;8375;33.594;-117.718;2023-04-02T04:26:35;6.73;;;1.77;;
16524;SDS011;8375;33.594;-117.718;2023-04-02T04:29:16;5.57;;;1.90;;
16524;SDS011;8375;33.594;-117.718;2023-04-02T04:32:11;7.70;;;2.13;;
16524;SDS011;8375;33.594;-117.718;2023-04-02T04:34:53;4.50;;;1.87;;
16524;SDS011;8375;33.594;-117.718;2023-04-02T04:37:28;11.43;;;2.10;;
16524;SDS011;8375;33.594;-117.718;2023-04-02T04:40:02;7.50;;;2.40;;
16524;SDS011;8375;33.594;-117.718;2023-04-02T04:42:38;4.63;;;1.90;;
16524;SDS011;8375;33.594;-117.718;2023-04-02T04:45:12;8.33;;;2.57;;
16524;SDS011;8375;33.594;-117.718;2023-04-02T04:47:56;10.40;;;2.83;;
16524;SDS011;8375;33.594;-117.718;2023-04-02T04:50:30;8.57;;;2.57;;
16524;SDS011;8375;33.594;-117.718;2023-04-02T04:53:05;8.43;;;2.77;;
16524;SDS011;8375;33.594;-117.718;2023-04-02T04:55:36;8.13;;;2.63;;
16524;SDS011;8375;33.594;-117.718;2023-04-02T04:58:10;7.77;;;2.47;;
16524;SDS011;8375;33.594;-117.718;2023-04-02T05:00:52;9.87;;;3.40;;
16524;SDS011;8375;33.594;-117.718;2023-04-02T05:03:28;7.23;;;3.77;;
16524;SDS011;8375;33.594;-117.718;2023-04-02T05:06:04;8.63;;;3.60;;
16524;SDS011;8375;33.594;-117.718;2023-04-02T05:08:38;8.47;;;4.10;;
16524;SDS011;8375;33.594;-117.718;2023-04-02T05:11:13;8.60;;;2.90;;
16524;SDS011;8375;33.594;-117.718;2023-04-02T05:13:49;8.13;;;3.10;;
16524;SDS011;8375;33.594;-117.718;2023-04-02T05:16:22;7.27;;;3.00;;
16524;SDS011;8375;33.594;-117.718;2023-04-02T05:18:58;5.77;;;2.47;;
16524;SDS011;8375;33.594;-117.718;2023-04-02T05:21:36;8.37;;;2.77;;
16524;SDS011;8375;33.594;-117.718;2023-04-02T05:24:26;7.33;;;2.70;;
16524;SDS011;8375;33.594;-117.718;2023-04-02T05:27:21;7.50;;;3.00;;
16524;SDS011;8375;33.594;-117.718;2023-04-02T05:29:56;7.73;;;2.77;;
16524;SDS011;8375;33.594;-117.718;2023-04-02T05:32:30;10.87;;;3.03;;
16524;SDS011;8375;33.594;-117.718;2023-04-02T05:35:02;7.53;;;2.77;;
16524;SDS011;8375;33.594;-117.718;2023-04-02T05:37:33;7.40;;;2.97;;
16524;SDS011;8375;33.594;-117.718;2023-04-02T05:40:09;14.23;;;3.10;;
16524;SDS011;8375;33.594;-117.718;2023-04-02T05:42:46;11.00;;;2.80;;
16524;SDS011;8375;33.594;-117.718;2023-04-02T05:45:25;8.43;;;3.00;;
16524;SDS011;8375;33.594;-117.718;2023-04-02T05:47:59;10.90;;;3.43;;
16524;SDS011;8375;33.594;-117.718;2023-04-02T05:50:33;7.00;;;2.93;;
16524;SDS011;8375;33.594;-117.718;2023-04-02T05:53:07;13.23;;;3.30;;
16524;SDS011;8375;33.594;-117.718;2023-04-02T05:55:43;10.00;;;3.17;;
16524;SDS011;8375;33.594;-117.718;2023-04-02T05:58:21;8.57;;;3.20;;
16524;SDS011;8375;33.594;-117.718;2023-04-02T06:01:06;8.57;;;2.97;;
16524;SDS011;8375;33.594;-117.718;2023-04-02T06:03:48;14.27;;;3.57;;
16524;SDS011;8375;33.594;-117.718;2023-04-02T06:06:23;9.27;;;2.67;;
16524;SDS011;8375;33.594;-117.718;2023-04-02T06:09:02;6.93;;;3.20;;
16524;SDS011;8375;33.594;-117.718;2023-04-02T06:11:37;8.47;;;2.90;;
16524;SDS011;8375;33.594;-117.718;2023-04-02T06:14:11;10.77;;;3.40;;
16524;SDS011;8375;33.594;-117.718;2023-04-02T06:16:43;12.77;;;3.50;;
16524;SDS011;8375;33.594;-117.718;2023-04-02T06:19:14;9.07;;;3.20;;
16524;SDS011;8375;33.594;-117.718;2023-04-02T06:21:47;6.83;;;2.97;;
16524;SDS011;8375;33.594;-117.718;2023-04-02T06:24:21;5.73;;;2.67;;
16524;SDS011;8375;33.594;-117.718;2023-04-02T06:26:52;10.73;;;3.47;;
16524;SDS011;8375;33.594;-117.718;2023-04-02T06:29:27;9.73;;;3.40;;
16524;SDS011;8375;33.594;-117.718;2023-04-02T06:32:04;9.57;;;2.97;;
16524;SDS011;8375;33.594;-117.718;2023-04-02T06:34:36;12.87;;;3.37;;
16524;SDS011;8375;33.594;-117.718;2023-04-02T06:37:11;15.17;;;3.50;;
16524;SDS011;8375;33.594;-117.718;2023-04-02T06:39:48;9.63;;;3.40;;
16524;SDS011;8375;33.594;-117.718;2023-04-02T06:42:18;9.50;;;3.30;;
16524;SDS011;8375;33.594;-117.718;2023-04-02T06:44:49;10.53;;;3.90;;
16524;SDS011;8375;33.594;-117.718;2023-04-02T06:47:27;10.37;;;3.70;;
16524;SDS011;8375;33.594;-117.718;2023-04-02T06:50:03;14.73;;;3.83;;
16524;SDS011;8375;33.594;-117.718;2023-04-02T06:52:35;9.93;;;4.10;;
16524;SDS011;8375;33.594;-117.718;2023-04-02T06:55:23;8.87;;;4.20;;
16524;SDS011;8375;33.594;-117.718;2023-04-02T06:57:57;11.10;;;3.47;;
16524;SDS011;8375;33.594;-117.718;2023-04-02T07:00:27;9.07;;;3.47;;
16524;SDS011;8375;33.594;-117.718;2023-04-02T07:03:04;11.50;;;3.27;;
16524;SDS011;8375;33.594;-117.718;2023-04-02T07:05:48;12.83;;;4.17;;
16524;SDS011;8375;33.594;-117.718;2023-04-02T07:08:19;10.57;;;3.87;;
16524;SDS011;8375;33.594;-117.718;2023-04-02T07:10:50;8.70;;;3.27;;
16524;SDS011;8375;33.594;-117.718;2023-04-02T07:13:20;8.53;;;3.20;;
16524;SDS011;8375;33.594;-117.718;2023-04-02T07:15:51;7.13;;;3.10;;
16524;SDS011;8375;33.594;-117.718;2023-04-02T07:18:22;10.13;;;4.17;;
16524;SDS011;8375;33.594;-117.718;2023-04-02T07:20:53;8.07;;;3.73;;
16524;SDS011;8375;33.594;-117.718;2023-04-02T07:23:23;8.80;;;3.87;;
16524;SDS011;8375;33.594;-117.718;2023-04-02T07:25:54;8.07;;;3.60;;
16524;SDS011;8375;33.594;-117.718;2023-04-02T07:28:23;9.43;;;3.93;;
16524;SDS011;8375;33.594;-117.718;2023-04-02T07:30:51;9.10;;;3.37;;
16524;SDS011;8375;33.594;-117.718;2023-04-02T07:33:21;8.83;;;3.97;;
16524;SDS011;8375;33.594;-117.718;2023-04-02T07:35:51;12.30;;;4.20;;
16524;SDS011;8375;33.594;-117.718;2023-04-02T07:38:21;8.17;;;4.07;;
16524;SDS011;8375;33.594;-117.718;2023-04-02T07:40:50;7.20;;;3.40;;
16524;SDS011;8375;33.594;-117.718;2023-04-02T07:43:20;9.37;;;3.30;;
16524;SDS011;8375;33.594;-117.718;2023-04-02T07:45:49;6.17;;;3.37;;
16524;SDS011;8375;33.594;-117.718;2023-04-02T07:48:18;7.83;;;3.50;;
16524;SDS011;8375;33.594;-117.718;2023-04-02T07:50:46;8.13;;;3.30;;
16524;SDS011;8375;33.594;-117.718;2023-04-02T07:53:24;5.97;;;2.83;;
16524;SDS011;8375;33.594;-117.718;2023-04-02T07:55:56;7.40;;;3.07;;
16524;SDS011;8375;33.594;-117.718;2023-04-02T07:58:27;6.70;;;3.10;;
16524;SDS011;8375;33.594;-117.718;2023-04-02T08:00:56;6.73;;;3.00;;
16524;SDS011;8375;33.594;-117.718;2023-04-02T08:03:25;4.17;;;2.70;;
16524;SDS011;8375;33.594;-117.718;2023-04-02T08:05:54;6.70;;;2.93;;
16524;SDS011;8375;33.594;-117.718;2023-04-02T08:08:24;7.27;;;3.00;;
16524;SDS011;8375;33.594;-117.718;2023-04-02T08:10:52;4.87;;;2.93;;
16524;SDS011;8375;33.594;-117.718;2023-04-02T08:13:21;5.40;;;3.13;;
16524;SDS011;8375;33.594;-117.718;2023-04-02T08:15:52;6.90;;;3.47;;
16524;SDS011;8375;33.594;-117.718;2023-04-02T08:18:21;7.87;;;2.90;;
16524;SDS011;8375;33.594;-117.718;2023-04-02T08:20:49;5.50;;;3.00;;
16524;SDS011;8375;33.594;-117.718;2023-04-02T08:23:18;7.27;;;3.30;;
16524;SDS011;8375;33.594;-117.718;2023-04-02T08:25:47;9.67;;;3.37;;
16524;SDS011;8375;33.594;-117.718;2023-04-02T08:28:17;6.80;;;3.13;;
16524;SDS011;8375;33.594;-117.718;2023-04-02T08:30:46;7.90;;;2.97;;
16524;SDS011;8375;33.594;-117.718;2023-04-02T08:33:17;7.77;;;3.20;;
16524;SDS011;8375;33.594;-117.718;2023-04-02T08:35:46;6.97;;;2.80;;
16524;SDS011;8375;33.594;-117.718;2023-04-02T08:38:16;6.47;;;3.10;;
16524;SDS011;8375;33.594;-117.718;2023-04-02T08:40:46;6.80;;;3.30;;
16524;SDS011;8375;33.594;-117.718;2023-04-02T08:43:21;6.70;;;2.97;;
16524;SDS011;8375;33.594;-117.718;2023-04-02T08:46:08;5.80;;;2.93;;
16524;SDS011;8375;33.594;-117.718;2023-04-02T08:48:43;5.63;;;2.80;;
16524;SDS011;8375;33.594;-117.718;2023-04-02T08:51:20;10.40;;;3.37;;
16524;SDS011;8375;33.594;-117.718;2023-04-02T08:53:50;8.20;;;2.90;;
16524;SDS011;8375;33.594;-117.718;2023-04-02T08:56:24;9.30;;;3.43;;
16524;SDS011;8375;33.594;-117.718;2023-04-02T08:58:57;9.07;;;3.23;;
16524;SDS011;8375;33.594;-117.718;2023-04-02T09:01:34;4.73;;;2.63;;
16524;SDS011;8375;33.594;-117.718;2023-04-02T09:04:14;6.30;;;3.03;;
16524;SDS011;8375;33.594;-117.718;2023-04-02T09:06:43;6.10;;;3.20;;
16524;SDS011;8375;33.594;-117.718;2023-04-02T09:09:13;8.83;;;3.23;;
16524;SDS011;8375;33.594;-117.718;2023-04-02T09:11:44;7.23;;;2.80;;
16524;SDS011;8375;33.594;-117.718;2023-04-02T09:14:19;5.33;;;2.73;;
16524;SDS011;8375;33.594;-117.718;2023-04-02T09:16:52;7.77;;;2.87;;
16524;SDS011;8375;33.594;-117.718;2023-04-02T09:19:24;6.67;;;3.00;;
16524;SDS011;8375;33.594;-117.718;2023-04-02T09:22:02;10.70;;;3.40;;
16524;SDS011;8375;33.594;-117.718;2023-04-02T09:24:33;5.33;;;2.70;;
16524;SDS011;8375;33.594;-117.718;2023-04-02T09:27:08;13.30;;;4.17;;
16524;SDS011;8375;33.594;-117.718;2023-04-02T09:29:45;6.73;;;3.10;;
16524;SDS011;8375;33.594;-117.718;2023-04-02T09:32:26;12.57;;;4.20;;
16524;SDS011;8375;33.594;-117.718;2023-04-02T09:35:08;11.23;;;4.30;;
16524;SDS011;8375;33.594;-117.718;2023-04-02T09:37:41;6.83;;;3.23;;
16524;SDS011;8375;33.594;-117.718;2023-04-02T09:43:07;14.13;;;4.50;;
16524;SDS011;8375;33.594;-117.718;2023-04-02T09:45:38;16.53;;;4.63;;
16524;SDS011;8375;33.594;-117.718;2023-04-02T09:48:20;15.43;;;5.07;;
16524;SDS011;8375;33.594;-117.718;2023-04-02T09:51:03;10.60;;;4.57;;
16524;SDS011;8375;33.594;-117.718;2023-04-02T09:53:34;17.37;;;5.60;;
16524;SDS011;8375;33.594;-117.718;2023-04-02T09:56:07;12.60;;;4.90;;
16524;SDS011;8375;33.594;-117.718;2023-04-02T09:58:40;13.27;;;4.90;;
16524;SDS011;8375;33.594;-117.718;2023-04-02T10:01:26;14.50;;;5.27;;
16524;SDS011;8375;33.594;-117.718;2023-04-02T10:03:57;14.33;;;5.17;;
16524;SDS011;8375;33.594;-117.718;2023-04-02T10:06:28;16.97;;;5.27;;
16524;SDS011;8375;33.594;-117.718;2023-04-02T10:09:17;15.93;;;5.67;;
16524;SDS011;8375;33.594;-117.718;2023-04-02T10:11:52;19.37;;;5.60;;
16524;SDS011;8375;33.594;-117.718;2023-04-02T10:14:23;14.77;;;5.43;;
16524;SDS011;8375;33.594;-117.718;2023-04-02T10:16:55;17.80;;;5.63;;
16524;SDS011;8375;33.594;-117.718;2023-04-02T10:19:28;15.20;;;5.50;;
16524;SDS011;8375;33.594;-117.718;2023-04-02T10:22:04;12.17;;;5.27;;
16524;SDS011;8375;33.594;-117.718;2023-04-02T10:24:39;16.90;;;5.53;;
16524;SDS011;8375;33.594;-117.718;2023-04-02T10:27:11;17.07;;;5.67;;
16524;SDS011;8375;33.594;-117.718;2023-04-02T10:29:52;12.00;;;5.03;;
16524;SDS011;8375;33.594;-117.718;2023-04-02T10:32:39;17.73;;;6.33;;
16524;SDS011;8375;33.594;-117.718;2023-04-02T10:35:15;14.87;;;5.77;;
16524;SDS011;8375;33.594;-117.718;2023-04-02T10:37:59;15.57;;;5.47;;
16524;SDS011;8375;33.594;-117.718;2023-04-02T10:40:44;17.97;;;6.50;;
16524;SDS011;8375;33.594;-117.718;2023-04-02T10:46:21;13.10;;;6.40;;
16524;SDS011;8375;33.594;-117.718;2023-04-02T10:48:59;15.80;;;6.73;;
16524;SDS011;8375;33.594;-117.718;2023-04-02T10:51:36;20.27;;;8.07;;
16524;SDS011;8375;33.594;-117.718;2023-04-02T10:57:06;14.47;;;7.13;;
16524;SDS011;8375;33.594;-117.718;2023-04-02T10:59:41;16.40;;;7.13;;
16524;SDS011;8375;33.594;-117.718;2023-04-02T11:02:21;20.60;;;7.23;;
16524;SDS011;8375;33.594;-117.718;2023-04-02T11:04:56;18.73;;;7.10;;
16524;SDS011;8375;33.594;-117.718;2023-04-02T11:07:28;13.40;;;5.93;;
16524;SDS011;8375;33.594;-117.718;2023-04-02T11:10:04;22.17;;;8.30;;
16524;SDS011;8375;33.594;-117.718;2023-04-02T11:12:36;15.97;;;7.23;;
16524;SDS011;8375;33.594;-117.718;2023-04-02T11:15:12;17.17;;;7.40;;
16524;SDS011;8375;33.594;-117.718;2023-04-02T11:17:43;17.27;;;7.37;;
16524;SDS011;8375;33.594;-117.718;2023-04-02T11:23:32;24.40;;;7.10;;
16524;SDS011;8375;33.594;-117.718;2023-04-02T11:26:38;19.30;;;7.27;;
16524;SDS011;8375;33.594;-117.718;2023-04-02T11:29:13;16.50;;;7.70;;
16524;SDS011;8375;33.594;-117.718;2023-04-02T11:31:45;20.27;;;7.43;;
16524;SDS011;8375;33.594;-117.718;2023-04-02T11:37:29;24.80;;;8.23;;
16524;SDS011;8375;33.594;-117.718;2023-04-02T11:40:00;12.00;;;7.70;;
16524;SDS011;8375;33.594;-117.718;2023-04-02T11:42:33;15.77;;;7.90;;
16524;SDS011;8375;33.594;-117.718;2023-04-02T11:48:27;16.97;;;7.70;;
16524;SDS011;8375;33.594;-117.718;2023-04-02T11:50:58;19.87;;;8.80;;
16524;SDS011;8375;33.594;-117.718;2023-04-02T11:53:30;15.93;;;7.60;;
16524;SDS011;8375;33.594;-117.718;2023-04-02T11:56:07;16.83;;;7.47;;
16524;SDS011;8375;33.594;-117.718;2023-04-02T11:58:50;14.67;;;7.10;;
16524;SDS011;8375;33.594;-117.718;2023-04-02T12:01:37;18.93;;;7.50;;
16524;SDS011;8375;33.594;-117.718;2023-04-02T12:10:23;11.60;;;7.47;;
16524;SDS011;8375;33.594;-117.718;2023-04-02T12:12:54;12.07;;;8.10;;
16524;SDS011;8375;33.594;-117.718;2023-04-02T12:18:13;12.27;;;8.23;;
16524;SDS011;8375;33.594;-117.718;2023-04-02T12:20:47;14.47;;;8.33;;
16524;SDS011;8375;33.594;-117.718;2023-04-02T12:23:18;11.87;;;7.57;;
16524;SDS011;8375;33.594;-117.718;2023-04-02T12:25:53;11.13;;;7.80;;
16524;SDS011;8375;33.594;-117.718;2023-04-02T12:28:25;8.43;;;6.93;;
16524;SDS011;8375;33.594;-117.718;2023-04-02T12:31:04;9.70;;;6.80;;
16524;SDS011;8375;33.594;-117.718;2023-04-02T12:33:40;9.70;;;7.50;;
16524;SDS011;8375;33.594;-117.718;2023-04-02T12:36:17;11.20;;;7.00;;
16524;SDS011;8375;33.594;-117.718;2023-04-02T12:38:47;8.93;;;6.60;;
16524;SDS011;8375;33.594;-117.718;2023-04-02T12:41:21;10.43;;;6.67;;
16524;SDS011;8375;33.594;-117.718;2023-04-02T12:43:57;12.57;;;6.67;;
16524;SDS011;8375;33.594;-117.718;2023-04-02T12:46:29;9.23;;;6.67;;
16524;SDS011;8375;33.594;-117.718;2023-04-02T12:49:00;9.40;;;6.43;;
16524;SDS011;8375;33.594;-117.718;2023-04-02T12:51:32;7.73;;;6.83;;
16524;SDS011;8375;33.594;-117.718;2023-04-02T12:54:02;8.07;;;6.10;;
16524;SDS011;8375;33.594;-117.718;2023-04-02T12:56:32;8.63;;;6.37;;
16524;SDS011;8375;33.594;-117.718;2023-04-02T12:59:00;9.23;;;6.10;;
16524;SDS011;8375;33.594;-117.718;2023-04-02T13:01:31;9.17;;;6.77;;
16524;SDS011;8375;33.594;-117.718;2023-04-02T13:04:03;9.43;;;6.37;;
16524;SDS011;8375;33.594;-117.718;2023-04-02T13:06:32;9.40;;;7.20;;
16524;SDS011;8375;33.594;-117.718;2023-04-02T13:09:03;10.93;;;6.73;;
16524;SDS011;8375;33.594;-117.718;2023-04-02T13:11:33;12.10;;;6.03;;
16524;SDS011;8375;33.594;-117.718;2023-04-02T13:14:03;8.67;;;6.60;;
16524;SDS011;8375;33.594;-117.718;2023-04-02T13:16:35;9.97;;;7.10;;
16524;SDS011;8375;33.594;-117.718;2023-04-02T13:19:17;11.67;;;7.00;;
16524;SDS011;8375;33.594;-117.718;2023-04-02T13:21:50;9.97;;;6.17;;
16524;SDS011;8375;33.594;-117.718;2023-04-02T13:24:20;9.40;;;6.53;;
16524;SDS011;8375;33.594;-117.718;2023-04-02T13:26:52;10.20;;;6.53;;
16524;SDS011;8375;33.594;-117.718;2023-04-02T13:29:22;11.53;;;6.57;;
16524;SDS011;8375;33.594;-117.718;2023-04-02T13:31:57;10.60;;;6.63;;
16524;SDS011;8375;33.594;-117.718;2023-04-02T13:34:27;11.10;;;6.23;;
16524;SDS011;8375;33.594;-117.718;2023-04-02T13:36:56;10.83;;;7.07;;
16524;SDS011;8375;33.594;-117.718;2023-04-02T13:39:25;10.23;;;5.97;;
16524;SDS011;8375;33.594;-117.718;2023-04-02T13:41:55;11.83;;;6.50;;
16524;SDS011;8375;33.594;-117.718;2023-04-02T13:44:26;13.00;;;7.33;;
16524;SDS011;8375;33.594;-117.718;2023-04-02T13:46:57;7.77;;;6.30;;
16524;SDS011;8375;33.594;-117.718;2023-04-02T13:49:27;10.27;;;6.67;;
16524;SDS011;8375;33.594;-117.718;2023-04-02T13:51:56;9.10;;;6.10;;
16524;SDS011;8375;33.594;-117.718;2023-04-02T13:54:28;11.17;;;6.67;;
16524;SDS011;8375;33.594;-117.718;2023-04-02T13:57:00;13.03;;;6.17;;
16524;SDS011;8375;33.594;-117.718;2023-04-02T13:59:29;11.23;;;6.50;;
16524;SDS011;8375;33.594;-117.718;2023-04-02T14:02:00;9.63;;;6.13;;
16524;SDS011;8375;33.594;-117.718;2023-04-02T14:04:34;10.77;;;6.00;;
16524;SDS011;8375;33.594;-117.718;2023-04-02T14:07:10;8.47;;;5.07;;
16524;SDS011;8375;33.594;-117.718;2023-04-02T14:09:52;8.10;;;4.40;;
16524;SDS011;8375;33.594;-117.718;2023-04-02T14:12:49;7.77;;;4.00;;
16524;SDS011;8375;33.594;-117.718;2023-04-02T14:15:31;6.43;;;3.37;;
16524;SDS011;8375;33.594;-117.718;2023-04-02T14:18:15;6.93;;;3.87;;
16524;SDS011;8375;33.594;-117.718;2023-04-02T14:21:03;8.63;;;3.83;;
16524;SDS011;8375;33.594;-117.718;2023-04-02T14:23:47;7.03;;;3.67;;
16524;SDS011;8375;33.594;-117.718;2023-04-02T14:26:28;4.90;;;2.80;;
16524;SDS011;8375;33.594;-117.718;2023-04-02T14:29:07;7.40;;;2.63;;
16524;SDS011;8375;33.594;-117.718;2023-04-02T14:31:43;5.13;;;2.90;;
16524;SDS011;8375;33.594;-117.718;2023-04-02T14:34:20;7.30;;;3.37;;
16524;SDS011;8375;33.594;-117.718;2023-04-02T14:36:59;6.53;;;2.53;;
16524;SDS011;8375;33.594;-117.718;2023-04-02T14:39:38;9.77;;;3.10;;
16524;SDS011;8375;33.594;-117.718;2023-04-02T14:42:12;9.80;;;3.37;;
16524;SDS011;8375;33.594;-117.718;2023-04-02T14:44:45;6.72;;;3.00;;
16524;SDS011;8375;33.594;-117.718;2023-04-02T14:47:20;5.05;;;2.90;;
16524;SDS011;8375;33.594;-117.718;2023-04-02T14:49:56;6.68;;;3.28;;
16524;SDS011;8375;33.594;-117.718;2023-04-02T14:52:31;6.65;;;3.00;;
16524;SDS011;8375;33.594;-117.718;2023-04-02T14:55:02;7.57;;;2.88;;
16524;SDS011;8375;33.594;-117.718;2023-04-02T14:57:34;7.05;;;3.03;;
16524;SDS011;8375;33.594;-117.718;2023-04-02T15:00:23;6.30;;;2.55;;
16524;SDS011;8375;33.594;-117.718;2023-04-02T15:02:56;6.57;;;2.30;;
16524;SDS011;8375;33.594;-117.718;2023-04-02T15:05:34;5.93;;;2.88;;
16524;SDS011;8375;33.594;-117.718;2023-04-02T15:08:11;7.22;;;2.90;;
16524;SDS011;8375;33.594;-117.718;2023-04-02T15:10:50;6.15;;;2.58;;
16524;SDS011;8375;33.594;-117.718;2023-04-02T15:13:27;4.63;;;2.60;;
16524;SDS011;8375;33.594;-117.718;2023-04-02T15:16:04;7.90;;;2.92;;
16524;SDS011;8375;33.594;-117.718;2023-04-02T15:18:39;7.68;;;2.75;;
16524;SDS011;8375;33.594;-117.718;2023-04-02T15:21:13;5.90;;;2.97;;
16524;SDS011;8375;33.594;-117.718;2023-04-02T15:24:02;7.13;;;2.67;;
16524;SDS011;8375;33.594;-117.718;2023-04-02T15:26:37;7.22;;;2.92;;
16524;SDS011;8375;33.594;-117.718;2023-04-02T15:29:16;6.13;;;2.60;;
16524;SDS011;8375;33.594;-117.718;2023-04-02T15:31:50;3.97;;;2.20;;
16524;SDS011;8375;33.594;-117.718;2023-04-02T15:34:28;6.18;;;2.58;;